Time;durP1;ratioP1;P1;durP2;ratioP2;P2;SDS_P1;SDS_P2;PMS_P1;PMS_P2;Temp;Humidity;BMP_temperature;BMP_pressure;BME280_temperature;BME280_humidity;BME280_pressure;Samples;Min_cycle;Max_cycle;Signal;HPM_P1;HPM_P2
2024/04/07 00:01:47;;;;;;;16.47;10.90;;;12.30;99.90;;;;;;4160063;28;20051;-53
2024/04/07 00:03:48;;;;;;;16.53;11.10;;;12.30;99.90;;;;;;4161016;28;20029;-51
2024/04/07 00:05:55;;;;;;;13.63;10.50;;;12.30;99.90;;;;;;4159847;28;20049;-56
2024/04/07 00:07:57;;;;;;;16.80;10.03;;;12.30;99.90;;;;;;4159993;28;20095;-57
2024/04/07 00:09:58;;;;;;;13.63;9.80;;;12.30;99.90;;;;;;4160060;28;20088;-56
2024/04/07 00:12:01;;;;;;;13.93;9.40;;;12.20;99.90;;;;;;4159824;28;20045;-54
2024/04/07 00:14:02;;;;;;;16.60;10.20;;;12.20;99.90;;;;;;4160205;28;20498;-53
2024/04/07 00:16:03;;;;;;;16.77;10.90;;;12.20;99.90;;;;;;4159835;28;20029;-54
2024/04/07 00:18:05;;;;;;;15.37;10.93;;;12.20;99.90;;;;;;4160516;28;20505;-52
2024/04/07 00:20:07;;;;;;;18.63;10.57;;;12.10;99.90;;;;;;4159716;28;20049;-51
2024/04/07 00:22:08;;;;;;;13.43;9.90;;;12.10;99.90;;;;;;4161107;28;20030;-50
2024/04/07 00:24:09;;;;;;;15.20;10.60;;;12.00;99.90;;;;;;4159646;28;20607;-57
2024/04/07 00:26:10;;;;;;;14.40;10.40;;;12.10;99.90;;;;;;4160509;28;20456;-55
2024/04/07 00:28:12;;;;;;;15.20;10.17;;;12.00;99.90;;;;;;4159696;28;20107;-51
2024/04/07 00:30:13;;;;;;;19.07;10.60;;;12.00;99.90;;;;;;4160575;28;20041;-52
2024/04/07 00:32:15;;;;;;;16.07;11.60;;;12.00;99.90;;;;;;4159231;28;20083;-55
2024/04/07 00:34:16;;;;;;;15.03;10.63;;;12.10;99.90;;;;;;4160729;28;20076;-56
2024/04/07 00:36:17;;;;;;;14.63;10.37;;;12.00;99.90;;;;;;4159483;28;20045;-58
2024/04/07 00:38:18;;;;;;;17.33;11.00;;;12.00;99.90;;;;;;4160005;28;20033;-51
2024/04/07 00:40:20;;;;;;;13.43;9.40;;;11.90;99.90;;;;;;4160011;28;20454;-55
2024/04/07 00:42:21;;;;;;;14.53;9.83;;;11.90;99.90;;;;;;4159744;28;20482;-52
2024/04/07 00:44:22;;;;;;;15.77;12.10;;;11.80;99.90;;;;;;4160309;28;20017;-52
2024/04/07 00:46:24;;;;;;;17.77;11.50;;;11.60;99.90;;;;;;4162374;28;20045;-54
2024/04/07 00:48:25;;;;;;;16.53;13.03;;;11.50;99.90;;;;;;4163812;28;20021;-56
2024/04/07 00:50:27;;;;;;;16.97;12.77;;;11.40;99.90;;;;;;4162806;28;20037;-54
2024/04/07 00:52:29;;;;;;;15.43;10.57;;;11.30;99.90;;;;;;4163822;28;20025;-53
2024/04/07 00:54:30;;;;;;;14.63;11.00;;;11.30;99.90;;;;;;4162680;28;20107;-54
2024/04/07 00:56:34;;;;;;;15.00;11.07;;;11.20;99.90;;;;;;4163792;28;20110;-55
2024/04/07 00:58:36;;;;;;;15.53;11.83;;;11.00;99.90;;;;;;4162494;28;20045;-51
2024/04/07 01:00:37;;;;;;;15.70;12.73;;;10.80;99.90;;;;;;4163655;28;20319;-54
2024/04/07 01:02:38;;;;;;;15.47;12.13;;;10.70;99.90;;;;;;4162406;28;20045;-52
2024/04/07 01:04:40;;;;;;;13.80;11.70;;;10.60;99.90;;;;;;4163348;28;20030;-55
2024/04/07 01:06:41;;;;;;;14.63;11.73;;;10.40;99.90;;;;;;4162452;28;20026;-54
2024/04/07 01:08:42;;;;;;;15.03;12.13;;;10.30;99.90;;;;;;4161270;28;20068;-55
2024/04/07 01:10:50;;;;;;;15.97;13.20;;;10.30;99.90;;;;;;4162604;28;20045;-53
2024/04/07 01:12:52;;;;;;;16.43;13.17;;;10.20;99.90;;;;;;4163103;28;20026;-55
2024/04/07 01:14:53;;;;;;;16.03;12.93;;;10.10;99.90;;;;;;4162670;28;20087;-51
2024/04/07 01:16:55;;;;;;;16.40;13.03;;;10.00;99.90;;;;;;4162755;28;20038;-52
2024/04/07 01:18:56;;;;;;;36.17;13.80;;;9.90;99.90;;;;;;4162522;28;20095;-53
2024/04/07 01:20:58;;;;;;;43.23;13.67;;;9.90;99.90;;;;;;4162107;28;20037;-57
2024/04/07 01:22:59;;;;;;;17.70;12.87;;;9.80;99.90;;;;;;4163321;28;20021;-54
2024/04/07 01:25:01;;;;;;;73.00;18.47;;;9.70;99.90;;;;;;4162510;28;20037;-53
2024/04/07 01:27:04;;;;;;;80.03;13.43;;;9.70;99.90;;;;;;4163398;28;20025;-53
2024/04/07 01:29:06;;;;;;;121.10;15.97;;;9.70;99.90;;;;;;4162160;28;20038;-53
2024/04/07 01:31:07;;;;;;;62.43;14.57;;;9.70;99.90;;;;;;4163454;28;20099;-57
2024/04/07 01:33:09;;;;;;;131.83;13.83;;;9.60;99.90;;;;;;4162141;28;20163;-53
2024/04/07 01:35:10;;;;;;;164.53;16.43;;;9.40;99.90;;;;;;4163054;28;20033;-55
2024/04/07 01:37:11;;;;;;;131.70;15.13;;;9.20;99.90;;;;;;4161614;28;20127;-52
2024/04/07 01:39:12;;;;;;;124.77;15.83;;;9.00;99.90;;;;;;4163090;28;20075;-56
2024/04/07 01:41:14;;;;;;;103.60;15.43;;;9.00;99.90;;;;;;4161681;28;20045;-56
2024/04/07 01:43:15;;;;;;;88.47;15.67;;;8.90;99.90;;;;;;4162659;28;20099;-54
2024/04/07 01:45:18;;;;;;;116.07;17.70;;;8.90;99.90;;;;;;4161826;28;20064;-52
2024/04/07 01:47:19;;;;;;;135.30;18.37;;;8.90;99.90;;;;;;4162454;28;20084;-52
2024/04/07 01:49:20;;;;;;;126.23;19.33;;;9.00;99.90;;;;;;4162519;28;20022;-54
2024/04/07 01:51:22;;;;;;;193.20;20.10;;;8.90;99.90;;;;;;4162128;28;20087;-56
2024/04/07 01:53:23;;;;;;;157.40;18.50;;;8.90;99.90;;;;;;4162325;28;20037;-54
2024/04/07 01:55:24;;;;;;;175.17;19.20;;;8.90;99.90;;;;;;4161620;28;20095;-54
2024/04/07 01:57:26;;;;;;;135.90;21.10;;;8.90;99.90;;;;;;4161728;28;20042;-56
2024/04/07 01:59:27;;;;;;;245.47;27.73;;;8.90;99.90;;;;;;4161261;28;20111;-54
2024/04/07 02:01:29;;;;;;;85.83;19.63;;;8.80;99.90;;;;;;4162549;28;20041;-54
2024/04/07 02:03:31;;;;;;;132.23;20.40;;;8.80;99.90;;;;;;4161692;28;20045;-57
2024/04/07 02:05:33;;;;;;;99.40;21.27;;;8.90;99.90;;;;;;4162759;28;20545;-55
2024/04/07 02:07:34;;;;;;;196.03;23.70;;;8.90;99.90;;;;;;4160932;28;20486;-58
2024/04/07 02:09:35;;;;;;;120.67;20.97;;;8.90;99.90;;;;;;4162561;28;20127;-55
2024/04/07 02:11:37;;;;;;;132.37;21.83;;;8.90;99.90;;;;;;4161342;28;20147;-54
2024/04/07 02:13:38;;;;;;;215.23;26.13;;;8.80;99.90;;;;;;4162281;28;20367;-55
2024/04/07 02:15:39;;;;;;;72.67;19.17;;;8.80;99.90;;;;;;4161664;28;20025;-55
2024/04/07 02:17:40;;;;;;;180.37;25.90;;;8.80;99.90;;;;;;4161893;28;20156;-56
2024/04/07 02:19:42;;;;;;;90.03;19.47;;;8.80;99.90;;;;;;4161907;28;20817;-53
2024/04/07 02:21:43;;;;;;;44.40;18.17;;;8.80;99.90;;;;;;4161149;28;20448;-58
2024/04/07 02:23:44;;;;;;;68.37;17.77;;;8.80;99.90;;;;;;4162505;28;20052;-54
2024/04/07 02:25:47;;;;;;;46.30;18.03;;;8.80;99.90;;;;;;4161438;28;20033;-55
2024/04/07 02:27:48;;;;;;;59.23;18.17;;;8.80;99.90;;;;;;4161951;28;20046;-55
2024/04/07 02:29:49;;;;;;;55.40;17.70;;;8.80;99.90;;;;;;4160766;28;20037;-55
2024/04/07 02:31:50;;;;;;;75.70;19.67;;;8.70;99.90;;;;;;4162328;28;20076;-56
2024/04/07 02:33:52;;;;;;;46.23;17.43;;;8.70;99.90;;;;;;4161154;28;20033;-56
2024/04/07 02:35:57;;;;;;;45.07;17.50;;;8.70;99.90;;;;;;4161968;28;20030;-57
2024/04/07 02:37:59;;;;;;;192.47;26.33;;;8.70;99.90;;;;;;4160778;28;20049;-57
2024/04/07 02:40:00;;;;;;;134.57;22.27;;;8.70;99.90;;;;;;4161997;28;20131;-56
2024/04/07 02:42:01;;;;;;;40.27;16.80;;;8.70;99.90;;;;;;4160980;28;20041;-55
2024/04/07 02:44:03;;;;;;;59.33;18.67;;;8.70;99.90;;;;;;4162076;28;20393;-54
2024/04/07 02:48:24;;;;;;;44.43;18.07;;;8.80;99.90;;;;;;4161978;28;20083;-59
2024/04/07 02:50:25;;;;;;;57.97;18.00;;;8.70;99.90;;;;;;4160920;28;20255;-57
2024/04/07 02:52:26;;;;;;;66.13;20.17;;;8.70;99.90;;;;;;4161203;28;20033;-56
2024/04/07 02:54:28;;;;;;;46.10;19.07;;;8.60;99.90;;;;;;4161191;28;20100;-57
2024/04/07 02:56:29;;;;;;;46.00;18.20;;;8.60;99.90;;;;;;4160562;28;20080;-55
2024/04/07 02:58:30;;;;;;;68.47;19.23;;;8.60;99.90;;;;;;4161042;28;20509;-55
2024/04/07 03:00:31;;;;;;;178.40;29.43;;;8.70;99.90;;;;;;4160375;28;20132;-57
2024/04/07 03:02:33;;;;;;;58.57;20.47;;;8.70;99.90;;;;;;4161713;28;20083;-56
2024/04/07 03:04:34;;;;;;;35.70;19.10;;;8.70;99.90;;;;;;4160155;28;20383;-53
2024/04/07 03:06:35;;;;;;;57.30;19.93;;;8.80;99.90;;;;;;4161441;28;20060;-55
2024/04/07 03:08:37;;;;;;;65.47;20.00;;;8.80;99.90;;;;;;4159350;28;20049;-53
2024/04/07 03:10:38;;;;;;;42.77;18.67;;;8.90;99.90;;;;;;4161548;28;20050;-55
2024/04/07 03:12:39;;;;;;;31.47;19.10;;;8.90;99.90;;;;;;4160179;28;20034;-53
2024/04/07 03:14:40;;;;;;;98.17;22.03;;;9.00;99.90;;;;;;4161396;28;20041;-54
2024/04/07 03:16:42;;;;;;;27.77;18.73;;;9.00;99.90;;;;;;4160466;28;20890;-54
2024/04/07 03:18:43;;;;;;;27.27;17.73;;;9.00;99.90;;;;;;4161463;28;20079;-51
2024/04/07 03:20:44;;;;;;;35.37;18.83;;;9.00;99.90;;;;;;4160378;28;20037;-55
2024/04/07 03:22:45;;;;;;;26.60;17.67;;;9.10;99.90;;;;;;4161075;28;20030;-59
2024/04/07 03:24:47;;;;;;;30.23;17.97;;;9.10;99.90;;;;;;4160612;28;20092;-54
2024/04/07 03:26:48;;;;;;;25.33;17.90;;;9.10;99.90;;;;;;4160308;28;20037;-54
2024/04/07 03:28:49;;;;;;;41.10;18.83;;;9.10;99.90;;;;;;4160807;28;20074;-53
2024/04/07 03:30:54;;;;;;;61.23;18.93;;;9.10;99.90;;;;;;4158634;28;20079;-55
2024/04/07 03:32:55;;;;;;;66.73;19.23;;;9.10;99.90;;;;;;4161190;28;20037;-53
2024/04/07 03:34:56;;;;;;;79.50;19.67;;;9.00;99.90;;;;;;4160132;28;20038;-57
2024/04/07 03:36:58;;;;;;;34.97;17.27;;;9.00;99.90;;;;;;4161232;28;20118;-56
2024/04/07 03:38:59;;;;;;;39.97;17.70;;;9.00;99.90;;;;;;4159982;28;20041;-55
2024/04/07 03:41:03;;;;;;;41.00;16.50;;;9.00;99.90;;;;;;4160923;28;20099;-58
2024/04/07 03:43:05;;;;;;;128.73;19.77;;;9.00;99.90;;;;;;4160070;28;20468;-54
2024/04/07 03:45:09;;;;;;;31.07;17.23;;;9.00;99.90;;;;;;4160905;28;20422;-53
2024/04/07 03:47:12;;;;;;;61.37;19.93;;;9.00;99.90;;;;;;4160054;28;20041;-55
2024/04/07 03:49:13;;;;;;;82.57;20.63;;;9.00;99.90;;;;;;4160988;28;20095;-56
2024/04/07 03:51:15;;;;;;;61.37;18.37;;;9.00;99.90;;;;;;4159933;28;20053;-51
2024/04/07 03:53:16;;;;;;;124.03;20.83;;;8.90;99.90;;;;;;4160594;28;20327;-56
2024/04/07 03:55:17;;;;;;;78.20;18.90;;;8.90;99.90;;;;;;4160525;28;20073;-56
2024/04/07 03:57:18;;;;;;;145.60;22.43;;;8.90;99.90;;;;;;4160964;28;20426;-59
2024/04/07 03:59:20;;;;;;;119.27;20.30;;;8.90;99.90;;;;;;4160482;28;20095;-59
2024/04/07 04:01:21;;;;;;;36.73;17.03;;;8.80;99.90;;;;;;4159682;28;20049;-54
2024/04/07 04:03:23;;;;;;;117.97;18.33;;;8.80;99.90;;;;;;4160428;28;20038;-55
2024/04/07 04:05:24;;;;;;;217.23;20.73;;;8.80;99.90;;;;;;4159988;28;20054;-60
2024/04/07 04:07:27;;;;;;;239.67;19.63;;;8.80;99.90;;;;;;4161008;28;20029;-57
2024/04/07 04:09:28;;;;;;;74.73;15.77;;;8.70;99.90;;;;;;4159582;28;20050;-56
2024/04/07 04:11:29;;;;;;;343.70;24.20;;;8.70;99.90;;;;;;4160964;28;20029;-56
2024/04/07 04:13:31;;;;;;;288.23;21.93;;;8.70;99.90;;;;;;4159511;28;20041;-50
2024/04/07 04:15:35;;;;;;;233.00;20.27;;;8.60;99.90;;;;;;4160848;28;20029;-56
2024/04/07 04:17:36;;;;;;;332.60;22.53;;;8.60;99.90;;;;;;4159586;28;20072;-55
2024/04/07 04:19:38;;;;;;;168.17;18.50;;;8.60;99.90;;;;;;4160732;28;20459;-53
2024/04/07 04:21:41;;;;;;;115.70;17.73;;;8.60;99.90;;;;;;4162988;28;20535;-56
2024/04/07 04:23:42;;;;;;;212.27;20.30;;;8.60;99.90;;;;;;4164057;28;20041;-52
2024/04/07 04:25:55;;;;;;;147.93;19.27;;;8.60;99.90;;;;;;4163103;28;20041;-57
2024/04/07 04:27:57;;;;;;;173.10;19.73;;;8.60;99.90;;;;;;4163596;28;20486;-52
2024/04/07 04:29:58;;;;;;;183.03;20.57;;;8.70;99.90;;;;;;4162824;28;20041;-54
2024/04/07 04:32:00;;;;;;;235.23;22.13;;;8.60;99.90;;;;;;4163326;28;20045;-56
2024/04/07 04:34:02;;;;;;;198.20;20.10;;;8.60;99.90;;;;;;4163132;28;20111;-57
2024/04/07 04:36:12;;;;;;;67.23;18.27;;;8.60;99.90;;;;;;4163402;28;20041;-55
2024/04/07 04:38:13;;;;;;;98.00;18.73;;;8.60;99.90;;;;;;4163221;28;20544;-57
2024/04/07 04:40:15;;;;;;;114.50;18.93;;;8.70;99.90;;;;;;4162819;28;20083;-55
2024/04/07 04:42:16;;;;;;;109.47;19.87;;;8.70;99.90;;;;;;4162968;28;20045;-56
2024/04/07 04:44:18;;;;;;;134.30;19.50;;;8.70;99.90;;;;;;4162061;28;20046;-57
2024/04/07 04:46:19;;;;;;;105.03;18.67;;;8.80;99.90;;;;;;4163711;28;20487;-58
2024/04/07 04:48:21;;;;;;;207.57;21.67;;;8.80;99.90;;;;;;4162337;28;20038;-58
2024/04/07 04:50:22;;;;;;;215.27;22.97;;;8.90;99.90;;;;;;4163684;28;20033;-54
2024/04/07 04:52:23;;;;;;;31.13;17.10;;;8.80;99.90;;;;;;4162533;28;20083;-53
2024/04/07 04:54:24;;;;;;;61.00;18.97;;;8.90;99.90;;;;;;4163408;28;20038;-52
2024/04/07 04:56:26;;;;;;;65.53;17.87;;;9.00;99.90;;;;;;4162634;28;20041;-52
2024/04/07 04:58:27;;;;;;;67.93;19.47;;;9.10;99.90;;;;;;4163338;28;20070;-57
2024/04/07 05:00:28;;;;;;;103.63;19.63;;;9.10;99.90;;;;;;4162332;28;20029;-54
2024/04/07 05:02:30;;;;;;;47.97;18.33;;;9.10;99.90;;;;;;4163423;28;20479;-56
2024/04/07 05:04:31;;;;;;;43.97;17.80;;;9.20;99.90;;;;;;4162312;28;20571;-56
2024/04/07 05:06:32;;;;;;;40.10;19.03;;;9.20;99.90;;;;;;4162611;28;20140;-56
2024/04/07 05:08:38;;;;;;;143.33;21.93;;;9.30;99.90;;;;;;4162068;28;20568;-57
2024/04/07 05:10:39;;;;;;;290.80;24.10;;;9.30;99.90;;;;;;4162162;28;20099;-57
2024/04/07 05:12:41;;;;;;;254.37;24.23;;;9.20;99.90;;;;;;4162814;28;20410;-57
2024/04/07 05:14:42;;;;;;;216.53;21.67;;;9.20;99.90;;;;;;4162477;28;20099;-57
2024/04/07 05:16:43;;;;;;;100.77;17.77;;;9.10;99.90;;;;;;4163252;28;20080;-57
2024/04/07 05:18:45;;;;;;;63.33;16.23;;;9.00;99.90;;;;;;4161710;28;20038;-56
2024/04/07 05:20:46;;;;;;;63.97;17.83;;;9.10;99.90;;;;;;4163035;28;20392;-56
2024/04/07 05:22:50;;;;;;;93.23;19.00;;;9.10;99.90;;;;;;4161768;28;20041;-57
2024/04/07 05:24:51;;;;;;;117.53;18.87;;;9.10;99.90;;;;;;4163306;28;20433;-58
2024/04/07 05:26:53;;;;;;;145.03;19.57;;;9.10;99.90;;;;;;4162474;28;20473;-58
2024/04/07 05:28:55;;;;;;;258.50;24.23;;;9.10;99.90;;;;;;4163282;28;20091;-55
2024/04/07 05:30:56;;;;;;;220.30;22.47;;;9.10;99.90;;;;;;4161396;28;20119;-57
2024/04/07 05:32:57;;;;;;;124.20;17.10;;;9.20;99.90;;;;;;4162227;28;20171;-56
2024/04/07 05:34:59;;;;;;;259.97;23.20;;;9.20;99.90;;;;;;4161651;28;20111;-57
2024/04/07 05:37:03;;;;;;;162.63;19.53;;;9.20;99.90;;;;;;4162723;28;20029;-55
2024/04/07 05:39:04;;;;;;;51.60;16.10;;;9.20;99.90;;;;;;4161944;28;20119;-56
2024/04/07 05:41:06;;;;;;;34.93;16.53;;;9.30;99.90;;;;;;4162376;28;20022;-56
2024/04/07 05:43:07;;;;;;;137.87;20.00;;;9.40;99.90;;;;;;4162434;28;20546;-56
2024/04/07 05:45:08;;;;;;;57.57;18.57;;;9.50;99.90;;;;;;4162054;28;20547;-56
2024/04/07 05:47:10;;;;;;;170.40;22.17;;;9.50;99.90;;;;;;4162136;28;20045;-53
2024/04/07 05:49:11;;;;;;;234.77;24.53;;;9.50;99.90;;;;;;4161643;28;20088;-55
2024/04/07 05:51:14;;;;;;;157.33;23.33;;;9.50;99.90;;;;;;4162431;28;20067;-54
2024/04/07 05:53:15;;;;;;;112.97;20.10;;;9.50;99.90;;;;;;4161384;28;20041;-51
2024/04/07 05:55:17;;;;;;;137.13;19.10;;;9.50;99.90;;;;;;4162555;28;20059;-53
2024/04/07 05:57:18;;;;;;;152.03;21.63;;;9.50;99.90;;;;;;4161488;28;20042;-56
2024/04/07 05:59:19;;;;;;;138.40;20.00;;;9.50;99.90;;;;;;4162419;28;20563;-57
2024/04/07 06:01:21;;;;;;;225.57;25.77;;;9.50;99.90;;;;;;4161374;28;20025;-53
2024/04/07 06:03:22;;;;;;;65.90;18.63;;;9.60;99.90;;;;;;4162624;28;20096;-54
2024/04/07 06:05:23;;;;;;;121.03;19.23;;;9.60;99.90;;;;;;4161037;28;20068;-55
2024/04/07 06:07:25;;;;;;;115.43;20.90;;;9.60;99.90;;;;;;4162075;28;20029;-56
2024/04/07 06:09:27;;;;;;;47.77;17.10;;;9.70;99.90;;;;;;4160872;28;20045;-58
2024/04/07 06:11:28;;;;;;;72.30;18.67;;;9.70;99.90;;;;;;4161725;28;20099;-55
2024/04/07 06:13:30;;;;;;;59.67;19.83;;;9.80;99.90;;;;;;4161100;28;20517;-53
2024/04/07 06:15:31;;;;;;;55.83;17.50;;;9.80;99.90;;;;;;4161620;28;20009;-57
2024/04/07 06:17:33;;;;;;;55.27;16.50;;;9.90;99.90;;;;;;4161962;28;20083;-58
2024/04/07 06:19:34;;;;;;;46.57;16.57;;;9.90;99.90;;;;;;4160779;28;20042;-54
2024/04/07 06:21:35;;;;;;;44.93;17.17;;;10.00;99.90;;;;;;4161728;28;20148;-54
2024/04/07 06:23:37;;;;;;;57.40;17.13;;;10.00;99.90;;;;;;4161032;28;20041;-59
2024/04/07 06:25:38;;;;;;;67.97;15.73;;;10.00;99.90;;;;;;4162156;28;20091;-53
2024/04/07 06:27:39;;;;;;;79.87;15.30;;;10.10;99.90;;;;;;4161458;28;20037;-55
2024/04/07 06:29:40;;;;;;;66.00;14.73;;;10.10;99.90;;;;;;4161899;28;20037;-56
2024/04/07 06:31:42;;;;;;;121.50;18.13;;;10.10;99.90;;;;;;4161180;28;20041;-57
2024/04/07 06:33:43;;;;;;;41.37;14.53;;;10.20;99.90;;;;;;4161562;28;20087;-53
2024/04/07 06:35:44;;;;;;;81.97;15.90;;;10.20;99.90;;;;;;4160744;28;20034;-52
2024/04/07 06:37:45;;;;;;;40.50;16.03;;;10.30;99.90;;;;;;4161801;28;20037;-52
2024/04/07 06:39:47;;;;;;;47.50;16.40;;;10.40;99.90;;;;;;4161111;28;20044;-60
2024/04/07 06:41:48;;;;;;;42.00;17.00;;;10.60;99.90;;;;;;4161113;28;20053;-57
2024/04/07 06:43:49;;;;;;;39.73;16.10;;;10.60;99.90;;;;;;4160671;28;20115;-53
2024/04/07 06:45:50;;;;;;;31.53;15.27;;;10.70;99.90;;;;;;4161121;28;20037;-53
2024/04/07 06:47:52;;;;;;;35.47;15.40;;;10.80;99.90;;;;;;4161578;28;20041;-58
2024/04/07 06:49:56;;;;;;;68.87;16.67;;;10.90;99.90;;;;;;4160644;28;20083;-53
2024/04/07 06:51:58;;;;;;;153.57;17.80;;;11.00;99.90;;;;;;4161222;28;20103;-56
2024/04/07 06:54:00;;;;;;;84.07;14.53;;;10.90;99.90;;;;;;4160649;28;20106;-54
2024/04/07 06:56:01;;;;;;;156.97;16.93;;;10.90;99.90;;;;;;4161276;28;20433;-56
2024/04/07 06:58:02;;;;;;;57.53;14.47;;;10.90;99.90;;;;;;4160655;28;20156;-56
2024/04/07 07:00:04;;;;;;;21.37;13.40;;;10.90;99.90;;;;;;4161168;28;20037;-61
2024/04/07 07:02:06;;;;;;;70.17;15.13;;;11.00;99.90;;;;;;4160338;28;20095;-59
2024/04/07 07:04:07;;;;;;;51.57;14.23;;;11.00;99.90;;;;;;4161778;28;20033;-58
2024/04/07 07:06:13;;;;;;;32.47;14.53;;;11.10;99.90;;;;;;4160243;28;20390;-57
2024/04/07 07:08:15;;;;;;;25.90;13.40;;;11.10;99.90;;;;;;4160686;28;20397;-58
2024/04/07 07:10:16;;;;;;;40.30;14.40;;;11.10;99.90;;;;;;4159953;28;20104;-58
2024/04/07 07:12:17;;;;;;;29.43;13.83;;;11.30;99.90;;;;;;4160999;28;20033;-56
2024/04/07 07:14:18;;;;;;;34.80;14.27;;;11.40;99.90;;;;;;4160028;28;20367;-58
2024/04/07 07:16:21;;;;;;;30.63;13.53;;;11.50;99.90;;;;;;4161005;28;20041;-58
2024/04/07 07:18:23;;;;;;;27.63;13.40;;;11.50;99.90;;;;;;4160182;28;20030;-57
2024/04/07 07:20:24;;;;;;;31.00;14.40;;;11.40;99.90;;;;;;4160793;28;20029;-57
2024/04/07 07:22:25;;;;;;;27.97;12.93;;;11.50;99.90;;;;;;4160420;28;20119;-54
2024/04/07 07:24:27;;;;;;;30.33;12.57;;;11.50;99.90;;;;;;4160150;28;20091;-53
2024/04/07 07:26:28;;;;;;;22.80;13.23;;;11.50;99.90;;;;;;4161661;28;20079;-56
2024/04/07 07:28:30;;;;;;;25.80;12.67;;;11.50;99.90;;;;;;4159722;28;20041;-52
2024/04/07 07:30:32;;;;;;;51.10;12.60;;;11.50;99.90;;;;;;4161402;28;20087;-58
2024/04/07 07:32:34;;;;;;;17.17;12.03;;;11.50;99.90;;;;;;4160106;28;20045;-55
2024/04/07 07:34:35;;;;;;;21.20;11.93;;;11.60;99.90;;;;;;4160828;28;20088;-52
2024/04/07 07:36:36;;;;;;;23.27;11.80;;;11.70;99.90;;;;;;4159740;28;20432;-52
2024/04/07 07:38:38;;;;;;;22.60;11.30;;;11.70;99.90;;;;;;4161028;28;20037;-52
2024/04/07 07:40:40;;;;;;;18.00;11.83;;;11.80;99.90;;;;;;4159888;28;20087;-56
2024/04/07 07:42:41;;;;;;;14.90;11.47;;;11.90;99.90;;;;;;4161051;28;20045;-53
2024/04/07 07:44:42;;;;;;;18.57;11.50;;;12.00;99.90;;;;;;4159849;28;20455;-55
2024/04/07 07:46:44;;;;;;;20.30;11.40;;;12.00;99.90;;;;;;4160304;28;20806;-57
2024/04/07 07:48:45;;;;;;;15.27;11.17;;;11.90;99.90;;;;;;4160214;28;20514;-57
2024/04/07 07:50:47;;;;;;;18.70;10.73;;;11.90;99.90;;;;;;4160114;28;20041;-56
2024/04/07 07:52:48;;;;;;;17.47;9.37;;;11.90;99.90;;;;;;4160550;28;20095;-55
2024/04/07 07:54:49;;;;;;;14.00;10.20;;;12.00;99.90;;;;;;4158825;28;20071;-54
2024/04/07 07:56:51;;;;;;;10.70;8.37;;;12.10;99.90;;;;;;4160966;28;20080;-52
2024/04/07 07:58:52;;;;;;;10.17;8.70;;;12.20;99.90;;;;;;4159539;28;20544;-57
2024/04/07 08:00:53;;;;;;;11.43;9.30;;;12.30;99.90;;;;;;4160769;28;20403;-56
2024/04/07 08:02:55;;;;;;;10.93;9.20;;;12.40;99.90;;;;;;4159262;28;20091;-56
2024/04/07 08:04:56;;;;;;;9.60;8.57;;;12.60;99.90;;;;;;4160785;28;20033;-58
2024/04/07 08:06:57;;;;;;;8.83;7.90;;;12.80;99.90;;;;;;4159951;28;20107;-56
2024/04/07 08:08:58;;;;;;;10.37;7.83;;;13.00;99.90;;;;;;4160158;28;20087;-54
2024/04/07 08:11:00;;;;;;;11.43;8.13;;;13.10;99.90;;;;;;4159522;28;20025;-52
2024/04/07 08:13:01;;;;;;;10.20;7.97;;;13.30;99.90;;;;;;4160274;28;20103;-58
2024/04/07 08:15:03;;;;;;;11.87;8.70;;;13.50;99.90;;;;;;4159603;28;20493;-55
2024/04/07 08:17:04;;;;;;;8.83;7.77;;;13.70;99.90;;;;;;4159881;28;20548;-55
2024/04/07 08:19:06;;;;;;;10.17;7.80;;;13.70;99.90;;;;;;4159523;28;20034;-56
2024/04/07 08:21:08;;;;;;;9.97;7.10;;;13.70;99.90;;;;;;4159877;28;20084;-58
2024/04/07 08:23:15;;;;;;;7.90;6.63;;;13.90;99.90;;;;;;4159637;28;20111;-56
2024/04/07 08:25:17;;;;;;;8.47;5.67;;;14.00;99.90;;;;;;4159610;28;20458;-57
2024/04/07 08:27:19;;;;;;;7.87;5.13;;;14.30;99.90;;;;;;4160949;28;20087;-57
2024/04/07 08:29:20;;;;;;;5.03;4.53;;;14.40;99.90;;;;;;4159148;28;20440;-56
2024/04/07 08:31:22;;;;;;;8.10;4.95;;;14.50;99.90;;;;;;4160240;28;20079;-52
2024/04/07 08:33:23;;;;;;;4.03;3.47;;;14.50;99.90;;;;;;4158991;28;20088;-57
2024/04/07 08:35:24;;;;;;;5.22;3.95;;;14.50;99.90;;;;;;4160099;28;20034;-57
2024/04/07 08:37:26;;;;;;;4.25;3.85;;;14.50;99.90;;;;;;4158683;28;20080;-57
2024/04/07 08:39:28;;;;;;;7.25;5.20;;;14.70;99.90;;;;;;4159954;28;20029;-56
2024/04/07 08:41:29;;;;;;;7.22;4.90;;;14.90;99.90;;;;;;4159031;28;20410;-56
2024/04/07 08:43:30;;;;;;;4.35;3.60;;;15.10;99.90;;;;;;4160301;28;20037;-57
2024/04/07 08:45:32;;;;;;;6.32;3.67;;;15.40;99.90;;;;;;4158280;28;20084;-57
2024/04/07 08:47:37;;;;;;;4.72;4.15;;;15.60;99.90;;;;;;4159807;28;20504;-57
2024/04/07 08:49:40;;;;;;;5.43;4.68;;;15.90;99.90;;;;;;4159170;28;20406;-59
2024/04/07 08:51:42;;;;;;;6.95;4.47;;;16.00;99.90;;;;;;4159709;28;20163;-58
2024/04/07 08:53:45;;;;;;;6.15;4.03;;;16.20;99.90;;;;;;4159215;28;20029;-55
2024/04/07 08:55:49;;;;;;;4.65;3.40;;;16.40;99.90;;;;;;4159800;28;20438;-56
2024/04/07 08:57:52;;;;;;;6.28;3.50;;;16.70;99.90;;;;;;4160061;28;20038;-53
2024/04/07 08:59:53;;;;;;;5.85;4.43;;;16.70;99.90;;;;;;4158996;28;20076;-57
2024/04/07 09:01:55;;;;;;;6.43;4.47;;;16.80;99.90;;;;;;4159596;28;20072;-58
2024/04/07 09:03:59;;;;;;;5.38;3.65;;;16.80;99.90;;;;;;4158639;28;20038;-57
2024/04/07 09:06:01;;;;;;;4.63;3.28;;;16.90;99.90;;;;;;4160800;28;20489;-58
2024/04/07 09:08:02;;;;;;;4.18;3.67;;;17.20;99.90;;;;;;4161826;28;20071;-56
2024/04/07 09:10:04;;;;;;;4.60;3.50;;;17.20;99.90;;;;;;4163511;28;20807;-57
2024/04/07 09:12:10;;;;;;;8.23;4.03;;;17.20;99.90;;;;;;4161798;28;20061;-58
2024/04/07 09:14:12;;;;;;;6.47;4.03;;;17.20;99.90;;;;;;4162526;28;20034;-51
2024/04/07 09:16:14;;;;;;;4.57;3.00;;;17.20;99.90;;;;;;4161584;28;20171;-57
2024/04/07 09:18:17;;;;;;;6.13;3.92;;;17.30;99.90;;;;;;4162485;28;20034;-55
2024/04/07 09:20:23;;;;;;;5.72;4.30;;;17.50;99.90;;;;;;4161409;28;20103;-58
2024/04/07 09:22:25;;;;;;;4.28;3.58;;;17.50;99.90;;;;;;4162551;28;20148;-56
2024/04/07 09:24:26;;;;;;;5.50;3.95;;;17.40;99.90;;;;;;4161582;28;20049;-57
2024/04/07 09:26:28;;;;;;;6.13;4.22;;;17.40;99.90;;;;;;4162325;28;20425;-58
2024/04/07 09:28:29;;;;;;;4.38;3.97;;;17.40;99.90;;;;;;4162306;28;20037;-57
2024/04/07 09:30:31;;;;;;;6.05;2.95;;;17.40;99.90;;;;;;4162561;28;20064;-58
2024/04/07 09:32:32;;;;;;;5.97;4.45;;;17.20;99.90;;;;;;4160248;28;20567;-56
2024/04/07 09:34:35;;;;;;;1.92;1.52;;;17.20;99.90;;;;;;4161227;28;20029;-54
2024/04/07 09:36:37;;;;;;;4.57;2.38;;;17.40;99.90;;;;;;4162530;28;20025;-56
2024/04/07 09:38:39;;;;;;;3.03;2.20;;;17.60;99.90;;;;;;4161000;28;20103;-56
2024/04/07 09:40:46;;;;;;;2.65;2.05;;;17.80;99.90;;;;;;4162873;28;20029;-54
2024/04/07 09:42:52;;;;;;;3.58;2.42;;;17.80;99.90;;;;;;4161540;28;20033;-55
2024/04/07 09:44:57;;;;;;;2.70;2.30;;;18.00;99.90;;;;;;4162304;28;20490;-57
2024/04/07 09:47:03;;;;;;;5.68;3.05;;;18.20;99.90;;;;;;4160963;28;20050;-54
2024/04/07 09:49:09;;;;;;;2.88;2.53;;;18.10;99.90;;;;;;4162524;28;20037;-54
2024/04/07 09:51:17;;;;;;;5.95;2.17;;;18.20;99.90;;;;;;4161632;28;20022;-57
2024/04/07 09:53:22;;;;;;;1.90;1.75;;;18.30;99.90;;;;;;4162234;28;20091;-58
2024/04/07 09:55:27;;;;;;;3.50;2.25;;;18.30;99.90;;;;;;4161169;28;20091;-58
2024/04/07 09:57:28;;;;;;;1.77;1.33;;;18.40;99.90;;;;;;4162406;28;20046;-56
2024/04/07 09:59:30;;;;;;;3.35;1.90;;;18.50;99.90;;;;;;4161300;28;20030;-57
2024/04/07 10:01:31;;;;;;;3.13;2.20;;;18.70;99.90;;;;;;4162498;28;20473;-56
2024/04/07 10:03:33;;;;;;;2.08;1.23;;;18.60;99.90;;;;;;4160905;28;20072;-56
2024/04/07 10:05:34;;;;;;;3.33;1.52;;;18.60;99.90;;;;;;4161934;28;20033;-59
2024/04/07 10:07:36;;;;;;;2.10;1.42;;;18.50;99.90;;;;;;4161396;28;20049;-58
2024/04/07 10:09:40;;;;;;;2.45;1.60;;;18.60;99.90;;;;;;4161626;28;20053;-57
2024/04/07 10:11:48;;;;;;;2.10;0.85;;;18.70;99.90;;;;;;4162303;28;20095;-57
2024/04/07 10:13:50;;;;;;;2.25;0.88;;;18.70;99.90;;;;;;4161366;28;20045;-57
2024/04/07 10:15:56;;;;;;;1.38;0.93;;;18.90;99.90;;;;;;4161637;28;20531;-56
2024/04/07 10:17:57;;;;;;;1.55;0.95;;;19.00;99.90;;;;;;4160618;28;20053;-57
2024/04/07 10:19:59;;;;;;;3.05;1.30;;;19.10;99.90;;;;;;4161996;28;20041;-54
2024/04/07 10:22:01;;;;;;;1.10;0.73;;;18.90;99.90;;;;;;4159709;28;20021;-53
2024/04/07 10:24:03;;;;;;;0.75;0.73;;;19.00;99.90;;;;;;4162174;28;20037;-56
2024/04/07 10:26:06;;;;;;;1.67;1.02;;;18.90;99.90;;;;;;4161338;28;20304;-58